sensor_id;sensor_type;location;lat;lon;timestamp;pressure;altitude;pressure_sealevel;temperature;humidity
15405;BME280;7801;48.124;11.590;2023-10-19T00:00:13;94004.09;;;10.73;90.44
15405;BME280;7801;48.124;11.590;2023-10-19T00:02:49;93995.25;;;10.81;90.39
15405;BME280;7801;48.124;11.590;2023-10-19T00:05:16;94001.47;;;10.85;89.94
15405;BME280;7801;48.124;11.590;2023-10-19T00:07:42;93998.75;;;10.93;89.49
15405;BME280;7801;48.124;11.590;2023-10-19T00:10:07;94000.50;;;10.89;89.35
15405;BME280;7801;48.124;11.590;2023-10-19T00:12:34;94007.81;;;10.92;89.25
15405;BME280;7801;48.124;11.590;2023-10-19T00:14:59;94015.69;;;10.68;90.93
15405;BME280;7801;48.124;11.590;2023-10-19T00:17:25;94003.31;;;10.72;90.93
15405;BME280;7801;48.124;11.590;2023-10-19T00:19:52;93995.06;;;10.53;91.18
15405;BME280;7801;48.124;11.590;2023-10-19T00:22:43;93997.88;;;10.68;90.77
15405;BME280;7801;48.124;11.590;2023-10-19T00:25:09;93988.97;;;10.73;90.74
15405;BME280;7801;48.124;11.590;2023-10-19T00:27:39;93986.06;;;10.66;91.02
15405;BME280;7801;48.124;11.590;2023-10-19T00:30:05;93977.88;;;10.59;91.25
15405;BME280;7801;48.124;11.590;2023-10-19T00:32:32;93988.84;;;10.70;91.00
15405;BME280;7801;48.124;11.590;2023-10-19T00:34:59;93976.84;;;10.30;93.04
15405;BME280;7801;48.124;11.590;2023-10-19T00:37:33;93971.41;;;10.48;93.35
15405;BME280;7801;48.124;11.590;2023-10-19T00:40:07;93978.84;;;10.54;92.74
15405;BME280;7801;48.124;11.590;2023-10-19T00:42:41;93976.62;;;10.56;92.44
15405;BME280;7801;48.124;11.590;2023-10-19T00:45:11;93971.13;;;10.61;92.08
15405;BME280;7801;48.124;11.590;2023-10-19T00:47:38;93975.50;;;10.78;91.33
15405;BME280;7801;48.124;11.590;2023-10-19T00:50:08;93964.34;;;10.52;92.63
15405;BME280;7801;48.124;11.590;2023-10-19T00:52:42;93955.97;;;10.62;92.43
15405;BME280;7801;48.124;11.590;2023-10-19T00:55:18;93947.25;;;10.61;91.67
15405;BME280;7801;48.124;11.590;2023-10-19T00:57:45;93948.03;;;10.62;91.79
15405;BME280;7801;48.124;11.590;2023-10-19T01:00:15;93946.53;;;10.85;90.81
15405;BME280;7801;48.124;11.590;2023-10-19T01:02:55;93944.78;;;10.89;90.62
15405;BME280;7801;48.124;11.590;2023-10-19T01:05:25;93948.97;;;10.78;91.51
15405;BME280;7801;48.124;11.590;2023-10-19T01:07:57;93952.81;;;10.81;90.82
15405;BME280;7801;48.124;11.590;2023-10-19T01:10:23;93949.63;;;10.87;91.01
15405;BME280;7801;48.124;11.590;2023-10-19T01:12:49;93951.19;;;10.76;91.28
15405;BME280;7801;48.124;11.590;2023-10-19T01:15:19;93935.59;;;10.87;90.88
15405;BME280;7801;48.124;11.590;2023-10-19T01:17:57;93934.37;;;10.84;90.64
15405;BME280;7801;48.124;11.590;2023-10-19T01:23:06;93931.59;;;10.81;90.84
15405;BME280;7801;48.124;11.590;2023-10-19T01:28:07;93956.50;;;10.88;90.77
15405;BME280;7801;48.124;11.590;2023-10-19T01:30:33;93963.47;;;10.93;90.85
15405;BME280;7801;48.124;11.590;2023-10-19T01:32:59;93957.25;;;10.77;91.35
15405;BME280;7801;48.124;11.590;2023-10-19T01:35:24;93966.59;;;10.62;91.92
15405;BME280;7801;48.124;11.590;2023-10-19T01:37:50;93977.38;;;10.78;91.81
15405;BME280;7801;48.124;11.590;2023-10-19T01:40:15;93945.34;;;10.50;92.75
15405;BME280;7801;48.124;11.590;2023-10-19T01:42:45;93944.25;;;10.51;93.36
15405;BME280;7801;48.124;11.590;2023-10-19T01:45:11;93946.06;;;10.71;92.36
15405;BME280;7801;48.124;11.590;2023-10-19T01:47:37;93951.75;;;10.49;93.24
15405;BME280;7801;48.124;11.590;2023-10-19T01:50:02;93954.38;;;10.82;91.96
15405;BME280;7801;48.124;11.590;2023-10-19T01:52:30;93949.13;;;10.61;92.52
15405;BME280;7801;48.124;11.590;2023-10-19T01:54:55;93950.31;;;10.51;92.63
15405;BME280;7801;48.124;11.590;2023-10-19T01:57:27;93942.88;;;10.45;92.96
15405;BME280;7801;48.124;11.590;2023-10-19T01:59:53;93949.75;;;10.46;93.20
15405;BME280;7801;48.124;11.590;2023-10-19T02:02:18;93938.81;;;10.47;93.14
15405;BME280;7801;48.124;11.590;2023-10-19T02:04:46;93937.38;;;10.50;93.19
15405;BME280;7801;48.124;11.590;2023-10-19T02:07:14;93929.94;;;10.43;93.65
15405;BME280;7801;48.124;11.590;2023-10-19T02:09:43;93921.47;;;10.50;93.59
15405;BME280;7801;48.124;11.590;2023-10-19T02:12:08;93912.31;;;10.47;93.67
15405;BME280;7801;48.124;11.590;2023-10-19T02:14:33;93924.97;;;10.42;93.73
15405;BME280;7801;48.124;11.590;2023-10-19T02:17:00;93936.56;;;10.70;92.80
15405;BME280;7801;48.124;11.590;2023-10-19T02:19:27;93935.66;;;10.66;93.41
15405;BME280;7801;48.124;11.590;2023-10-19T02:22:02;93939.88;;;10.67;93.32
15405;BME280;7801;48.124;11.590;2023-10-19T02:24:33;93942.03;;;10.53;94.04
15405;BME280;7801;48.124;11.590;2023-10-19T02:26:59;93935.44;;;10.59;94.15
15405;BME280;7801;48.124;11.590;2023-10-19T02:29:26;93937.12;;;10.43;94.93
15405;BME280;7801;48.124;11.590;2023-10-19T02:31:51;93930.41;;;10.45;95.13
15405;BME280;7801;48.124;11.590;2023-10-19T02:34:18;93931.19;;;10.46;95.30
15405;BME280;7801;48.124;11.590;2023-10-19T02:36:45;93928.97;;;10.48;95.41
15405;BME280;7801;48.124;11.590;2023-10-19T02:39:13;93925.87;;;10.46;95.50
15405;BME280;7801;48.124;11.590;2023-10-19T02:41:47;93925.22;;;10.49;95.47
15405;BME280;7801;48.124;11.590;2023-10-19T02:44:18;93927.88;;;10.49;95.42
15405;BME280;7801;48.124;11.590;2023-10-19T02:46:45;93930.91;;;10.59;95.23
15405;BME280;7801;48.124;11.590;2023-10-19T02:49:14;93930.16;;;10.71;94.54
15405;BME280;7801;48.124;11.590;2023-10-19T02:51:44;93916.44;;;10.57;95.21
15405;BME280;7801;48.124;11.590;2023-10-19T02:54:10;93914.88;;;10.56;95.41
15405;BME280;7801;48.124;11.590;2023-10-19T02:56:44;93916.38;;;10.45;95.69
15405;BME280;7801;48.124;11.590;2023-10-19T02:59:13;93910.03;;;10.58;95.38
15405;BME280;7801;48.124;11.590;2023-10-19T03:01:41;93903.53;;;10.35;96.12
15405;BME280;7801;48.124;11.590;2023-10-19T03:04:09;93907.41;;;10.37;96.09
15405;BME280;7801;48.124;11.590;2023-10-19T03:06:37;93908.03;;;10.55;95.62
15405;BME280;7801;48.124;11.590;2023-10-19T03:09:04;93903.13;;;10.45;95.65
15405;BME280;7801;48.124;11.590;2023-10-19T03:11:38;93898.84;;;10.52;95.70
15405;BME280;7801;48.124;11.590;2023-10-19T03:14:05;93897.63;;;10.50;96.18
15405;BME280;7801;48.124;11.590;2023-10-19T03:16:31;93889.91;;;10.57;95.84
15405;BME280;7801;48.124;11.590;2023-10-19T03:18:56;93896.56;;;10.75;95.16
15405;BME280;7801;48.124;11.590;2023-10-19T03:21:22;93897.88;;;10.69;94.37
15405;BME280;7801;48.124;11.590;2023-10-19T03:23:56;93894.53;;;10.60;95.11
15405;BME280;7801;48.124;11.590;2023-10-19T03:26:27;93894.53;;;10.60;95.35
15405;BME280;7801;48.124;11.590;2023-10-19T03:28:57;93890.38;;;10.59;95.59
15405;BME280;7801;48.124;11.590;2023-10-19T03:31:39;93874.59;;;10.75;94.70
15405;BME280;7801;48.124;11.590;2023-10-19T03:34:13;93878.56;;;10.81;94.27
15405;BME280;7801;48.124;11.590;2023-10-19T03:36:39;93873.81;;;10.74;94.65
15405;BME280;7801;48.124;11.590;2023-10-19T03:39:05;93868.38;;;10.71;94.87
15405;BME280;7801;48.124;11.590;2023-10-19T03:41:37;93867.41;;;10.87;94.63
15405;BME280;7801;48.124;11.590;2023-10-19T03:44:04;93861.12;;;10.80;94.47
15405;BME280;7801;48.124;11.590;2023-10-19T03:46:29;93864.41;;;10.77;94.86
15405;BME280;7801;48.124;11.590;2023-10-19T03:48:57;93858.56;;;10.83;94.56
15405;BME280;7801;48.124;11.590;2023-10-19T03:51:29;93861.19;;;10.83;94.55
15405;BME280;7801;48.124;11.590;2023-10-19T03:54:05;93859.13;;;10.89;94.03
15405;BME280;7801;48.124;11.590;2023-10-19T03:56:46;93856.13;;;10.90;93.90
15405;BME280;7801;48.124;11.590;2023-10-19T03:59:13;93853.47;;;10.78;95.04
15405;BME280;7801;48.124;11.590;2023-10-19T04:01:38;93859.31;;;10.84;94.29
15405;BME280;7801;48.124;11.590;2023-10-19T04:04:04;93862.34;;;10.94;93.90
15405;BME280;7801;48.124;11.590;2023-10-19T04:06:30;93860.66;;;10.90;94.30
15405;BME280;7801;48.124;11.590;2023-10-19T04:08:55;93859.97;;;10.81;94.90
15405;BME280;7801;48.124;11.590;2023-10-19T04:11:20;93850.59;;;10.83;95.04
15405;BME280;7801;48.124;11.590;2023-10-19T04:13:52;93853.03;;;10.88;94.97
15405;BME280;7801;48.124;11.590;2023-10-19T04:16:19;93847.59;;;10.85;95.33
15405;BME280;7801;48.124;11.590;2023-10-19T04:18:44;93853.94;;;10.92;94.92
15405;BME280;7801;48.124;11.590;2023-10-19T04:21:10;93852.81;;;10.93;94.49
15405;BME280;7801;48.124;11.590;2023-10-19T04:23:35;93855.44;;;10.81;95.46
15405;BME280;7801;48.124;11.590;2023-10-19T04:26:01;93852.50;;;10.95;95.04
15405;BME280;7801;48.124;11.590;2023-10-19T04:28:31;93852.25;;;10.88;95.34
15405;BME280;7801;48.124;11.590;2023-10-19T04:30:58;93850.25;;;10.85;95.66
15405;BME280;7801;48.124;11.590;2023-10-19T04:33:31;93848.06;;;10.87;95.52
15405;BME280;7801;48.124;11.590;2023-10-19T04:35:57;93851.94;;;10.89;95.86
15405;BME280;7801;48.124;11.590;2023-10-19T04:38:25;93833.81;;;10.91;96.00
15405;BME280;7801;48.124;11.590;2023-10-19T04:40:50;93817.09;;;11.03;95.51
15405;BME280;7801;48.124;11.590;2023-10-19T04:43:16;93824.41;;;11.06;95.70
15405;BME280;7801;48.124;11.590;2023-10-19T04:45:46;93830.25;;;11.24;94.45
15405;BME280;7801;48.124;11.590;2023-10-19T04:48:12;93833.13;;;11.07;95.56
15405;BME280;7801;48.124;11.590;2023-10-19T04:50:37;93830.50;;;11.19;94.38
15405;BME280;7801;48.124;11.590;2023-10-19T04:53:02;93837.97;;;11.29;94.17
15405;BME280;7801;48.124;11.590;2023-10-19T04:55:31;93830.69;;;11.26;94.16
15405;BME280;7801;48.124;11.590;2023-10-19T04:57:56;93847.38;;;11.26;94.03
15405;BME280;7801;48.124;11.590;2023-10-19T05:00:22;93832.81;;;11.20;94.35
15405;BME280;7801;48.124;11.590;2023-10-19T05:02:50;93831.12;;;11.28;94.55
15405;BME280;7801;48.124;11.590;2023-10-19T05:05:17;93835.31;;;11.29;94.11
15405;BME280;7801;48.124;11.590;2023-10-19T05:07:42;93828.25;;;11.33;94.50
15405;BME280;7801;48.124;11.590;2023-10-19T05:10:08;93821.84;;;11.34;94.29
15405;BME280;7801;48.124;11.590;2023-10-19T05:12:33;93829.69;;;11.43;93.50
15405;BME280;7801;48.124;11.590;2023-10-19T05:14:59;93822.28;;;11.36;93.44
15405;BME280;7801;48.124;11.590;2023-10-19T05:17:24;93816.31;;;11.27;94.25
15405;BME280;7801;48.124;11.590;2023-10-19T05:19:50;93815.53;;;11.26;94.47
15405;BME280;7801;48.124;11.590;2023-10-19T05:22:16;93810.22;;;11.39;93.93
15405;BME280;7801;48.124;11.590;2023-10-19T05:24:41;93815.09;;;11.36;94.07
15405;BME280;7801;48.124;11.590;2023-10-19T05:27:07;93810.81;;;11.20;94.59
15405;BME280;7801;48.124;11.590;2023-10-19T05:29:34;93810.56;;;11.25;94.49
15405;BME280;7801;48.124;11.590;2023-10-19T05:32:01;93811.25;;;11.10;95.46
15405;BME280;7801;48.124;11.590;2023-10-19T05:34:27;93819.22;;;11.22;95.43
15405;BME280;7801;48.124;11.590;2023-10-19T05:36:54;93823.59;;;11.30;94.79
15405;BME280;7801;48.124;11.590;2023-10-19T05:39:23;93816.09;;;11.20;95.03
15405;BME280;7801;48.124;11.590;2023-10-19T05:41:53;93821.63;;;11.27;94.85
15405;BME280;7801;48.124;11.590;2023-10-19T05:44:19;93818.50;;;11.25;95.30
15405;BME280;7801;48.124;11.590;2023-10-19T05:46:44;93822.16;;;11.32;95.34
15405;BME280;7801;48.124;11.590;2023-10-19T05:49:09;93812.91;;;11.14;96.05
15405;BME280;7801;48.124;11.590;2023-10-19T05:51:35;93815.62;;;11.30;95.05
15405;BME280;7801;48.124;11.590;2023-10-19T05:54:00;93811.00;;;11.39;95.12
15405;BME280;7801;48.124;11.590;2023-10-19T05:56:29;93806.97;;;11.45;94.59
15405;BME280;7801;48.124;11.590;2023-10-19T05:58:55;93803.31;;;11.50;94.46
15405;BME280;7801;48.124;11.590;2023-10-19T06:01:21;93801.59;;;11.42;94.75
15405;BME280;7801;48.124;11.590;2023-10-19T06:03:47;93800.78;;;11.53;94.49
15405;BME280;7801;48.124;11.590;2023-10-19T06:06:12;93805.75;;;11.55;94.21
15405;BME280;7801;48.124;11.590;2023-10-19T06:08:39;93805.34;;;11.41;95.29
15405;BME280;7801;48.124;11.590;2023-10-19T06:11:05;93802.31;;;11.54;95.00
15405;BME280;7801;48.124;11.590;2023-10-19T06:13:30;93803.72;;;11.64;94.01
15405;BME280;7801;48.124;11.590;2023-10-19T06:15:56;93800.81;;;11.69;93.63
15405;BME280;7801;48.124;11.590;2023-10-19T06:18:21;93799.53;;;11.63;93.57
15405;BME280;7801;48.124;11.590;2023-10-19T06:20:46;93798.75;;;12.62;100.00
15405;BME280;7801;48.124;11.590;2023-10-19T06:23:13;93804.28;;;13.20;100.00
15405;BME280;7801;48.124;11.590;2023-10-19T06:25:39;93807.25;;;13.50;94.95
15405;BME280;7801;48.124;11.590;2023-10-19T06:28:05;93808.62;;;14.21;89.08
15405;BME280;7801;48.124;11.590;2023-10-19T06:30:31;93813.84;;;14.75;84.44
15405;BME280;7801;48.124;11.590;2023-10-19T06:32:58;93814.53;;;14.72;82.11
15405;BME280;7801;48.124;11.590;2023-10-19T06:35:28;93812.84;;;15.09;82.55
15405;BME280;7801;48.124;11.590;2023-10-19T06:37:54;93815.22;;;15.15;80.37
15405;BME280;7801;48.124;11.590;2023-10-19T06:40:20;93814.28;;;15.30;79.33
15405;BME280;7801;48.124;11.590;2023-10-19T06:42:47;93801.59;;;15.50;78.07
15405;BME280;7801;48.124;11.590;2023-10-19T06:45:14;93802.06;;;15.55;77.58
15405;BME280;7801;48.124;11.590;2023-10-19T06:47:44;93797.19;;;15.34;77.54
15405;BME280;7801;48.124;11.590;2023-10-19T06:50:12;93795.66;;;15.33;77.46
15405;BME280;7801;48.124;11.590;2023-10-19T06:52:38;93796.41;;;15.60;76.79
15405;BME280;7801;48.124;11.590;2023-10-19T06:55:04;93786.53;;;15.64;76.19
15405;BME280;7801;48.124;11.590;2023-10-19T06:57:31;93789.37;;;14.96;77.52
15405;BME280;7801;48.124;11.590;2023-10-19T06:59:59;93790.44;;;14.46;79.48
15405;BME280;7801;48.124;11.590;2023-10-19T07:02:32;93798.97;;;14.13;81.15
15405;BME280;7801;48.124;11.590;2023-10-19T07:04:57;93801.16;;;13.68;83.36
15405;BME280;7801;48.124;11.590;2023-10-19T07:07:22;93788.69;;;13.37;85.18
15405;BME280;7801;48.124;11.590;2023-10-19T07:09:48;93793.94;;;13.34;85.49
15405;BME280;7801;48.124;11.590;2023-10-19T07:12:16;93793.00;;;13.11;86.96
15405;BME280;7801;48.124;11.590;2023-10-19T07:14:41;93794.84;;;13.22;86.53
15405;BME280;7801;48.124;11.590;2023-10-19T07:17:06;93790.91;;;13.00;88.18
15405;BME280;7801;48.124;11.590;2023-10-19T07:19:32;93790.06;;;12.81;89.23
15405;BME280;7801;48.124;11.590;2023-10-19T07:21:58;93791.06;;;12.92;89.39
15405;BME280;7801;48.124;11.590;2023-10-19T07:24:24;93791.91;;;13.12;88.67
15405;BME280;7801;48.124;11.590;2023-10-19T07:26:50;93799.47;;;13.25;87.73
15405;BME280;7801;48.124;11.590;2023-10-19T07:29:31;93806.09;;;13.16;88.26
15405;BME280;7801;48.124;11.590;2023-10-19T07:31:56;93806.44;;;13.30;88.19
15405;BME280;7801;48.124;11.590;2023-10-19T07:34:23;93797.72;;;13.33;87.91
15405;BME280;7801;48.124;11.590;2023-10-19T07:36:53;93793.94;;;13.34;89.19
15405;BME280;7801;48.124;11.590;2023-10-19T07:39:19;93787.38;;;13.28;89.68
15405;BME280;7801;48.124;11.590;2023-10-19T07:41:45;93792.41;;;13.33;89.49
15405;BME280;7801;48.124;11.590;2023-10-19T07:44:12;93802.09;;;13.41;88.75
15405;BME280;7801;48.124;11.590;2023-10-19T08:38:18;93751.13;;;14.65;88.10
15405;BME280;7801;48.124;11.590;2023-10-19T08:40:43;93753.66;;;14.81;87.45
15405;BME280;7801;48.124;11.590;2023-10-19T08:43:09;93747.78;;;14.95;86.82
15405;BME280;7801;48.124;11.590;2023-10-19T08:45:38;93744.63;;;14.89;86.85
15405;BME280;7801;48.124;11.590;2023-10-19T08:48:04;93743.66;;;15.01;86.29
15405;BME280;7801;48.124;11.590;2023-10-19T08:50:31;93743.66;;;15.01;87.35
15405;BME280;7801;48.124;11.590;2023-10-19T08:53:06;93734.53;;;16.69;87.11
15405;BME280;7801;48.124;11.590;2023-10-19T08:55:33;93739.44;;;17.80;80.63
15405;BME280;7801;48.124;11.590;2023-10-19T08:57:59;93741.47;;;18.33;76.85
15405;BME280;7801;48.124;11.590;2023-10-19T09:00:26;93738.50;;;18.60;74.86
15405;BME280;7801;48.124;11.590;2023-10-19T09:02:52;93747.47;;;17.77;75.11
15405;BME280;7801;48.124;11.590;2023-10-19T09:05:19;93750.69;;;16.80;79.66
15405;BME280;7801;48.124;11.590;2023-10-19T09:07:57;93744.13;;;16.33;80.57
15405;BME280;7801;48.124;11.590;2023-10-19T09:10:26;93741.88;;;16.02;82.40
15405;BME280;7801;48.124;11.590;2023-10-19T09:12:59;93746.13;;;15.69;84.10
15405;BME280;7801;48.124;11.590;2023-10-19T09:15:25;93749.16;;;15.68;84.61
15405;BME280;7801;48.124;11.590;2023-10-19T09:17:51;93742.03;;;15.79;84.93
15405;BME280;7801;48.124;11.590;2023-10-19T09:20:20;93740.81;;;15.73;85.57
15405;BME280;7801;48.124;11.590;2023-10-19T09:22:55;93744.31;;;15.51;86.98
15405;BME280;7801;48.124;11.590;2023-10-19T09:25:21;93743.09;;;15.44;87.35
15405;BME280;7801;48.124;11.590;2023-10-19T09:27:48;93744.50;;;15.35;88.24
15405;BME280;7801;48.124;11.590;2023-10-19T09:30:15;93742.97;;;15.34;88.94
15405;BME280;7801;48.124;11.590;2023-10-19T09:32:46;93738.28;;;15.27;89.57
15405;BME280;7801;48.124;11.590;2023-10-19T09:35:13;93741.75;;;15.28;89.72
15405;BME280;7801;48.124;11.590;2023-10-19T09:40:15;93739.06;;;15.28;89.72
15405;BME280;7801;48.124;11.590;2023-10-19T09:42:43;93737.69;;;15.11;91.16
15405;BME280;7801;48.124;11.590;2023-10-19T09:45:19;93743.81;;;15.11;90.68
15405;BME280;7801;48.124;11.590;2023-10-19T09:53:36;93731.13;;;15.05;92.19
15405;BME280;7801;48.124;11.590;2023-10-19T09:56:06;93723.56;;;15.10;91.45
15405;BME280;7801;48.124;11.590;2023-10-19T09:58:36;93729.88;;;15.25;90.71
15405;BME280;7801;48.124;11.590;2023-10-19T10:01:10;93734.09;;;15.26;91.48
15405;BME280;7801;48.124;11.590;2023-10-19T10:03:53;93725.72;;;15.28;90.91
15405;BME280;7801;48.124;11.590;2023-10-19T10:09:22;93715.34;;;15.53;88.82
15405;BME280;7801;48.124;11.590;2023-10-19T10:11:54;93705.00;;;15.51;87.62
15405;BME280;7801;48.124;11.590;2023-10-19T10:14:28;93696.69;;;15.56;86.63
15405;BME280;7801;48.124;11.590;2023-10-19T10:17:01;93692.31;;;15.74;86.45
15405;BME280;7801;48.124;11.590;2023-10-19T10:19:28;93691.16;;;15.72;87.28
15405;BME280;7801;48.124;11.590;2023-10-19T10:22:27;93702.19;;;15.70;87.89
15405;BME280;7801;48.124;11.590;2023-10-19T10:24:55;93693.72;;;15.65;87.95
15405;BME280;7801;48.124;11.590;2023-10-19T10:27:32;93698.72;;;15.66;88.36
15405;BME280;7801;48.124;11.590;2023-10-19T10:30:00;93699.13;;;15.68;88.71
15405;BME280;7801;48.124;11.590;2023-10-19T10:32:52;93704.50;;;15.72;88.74
15405;BME280;7801;48.124;11.590;2023-10-19T10:38:11;93696.13;;;15.73;88.55
15405;BME280;7801;48.124;11.590;2023-10-19T10:40:49;93686.62;;;15.79;88.27
15405;BME280;7801;48.124;11.590;2023-10-19T10:43:15;93691.59;;;15.81;89.25
15405;BME280;7801;48.124;11.590;2023-10-19T10:45:44;93686.62;;;15.79;88.19
15405;BME280;7801;48.124;11.590;2023-10-19T10:48:30;93688.16;;;15.80;88.70
15405;BME280;7801;48.124;11.590;2023-10-19T10:50:56;93689.72;;;15.81;88.09
15405;BME280;7801;48.124;11.590;2023-10-19T10:53:24;93671.34;;;15.80;88.88
15405;BME280;7801;48.124;11.590;2023-10-19T10:55:53;93674.06;;;15.84;87.62
15405;BME280;7801;48.124;11.590;2023-10-19T10:58:20;93668.44;;;15.92;86.28
15405;BME280;7801;48.124;11.590;2023-10-19T11:00:47;93662.34;;;15.95;84.86
15405;BME280;7801;48.124;11.590;2023-10-19T11:03:18;93661.25;;;16.03;84.47
15405;BME280;7801;48.124;11.590;2023-10-19T11:05:45;93656.41;;;16.12;82.72
15405;BME280;7801;48.124;11.590;2023-10-19T11:08:15;93657.97;;;16.17;83.04
15405;BME280;7801;48.124;11.590;2023-10-19T11:10:45;93643.16;;;16.30;82.96
15405;BME280;7801;48.124;11.590;2023-10-19T11:13:23;93652.34;;;16.33;83.26
15405;BME280;7801;48.124;11.590;2023-10-19T11:15:55;93648.62;;;16.41;83.07
15405;BME280;7801;48.124;11.590;2023-10-19T11:18:38;93658.56;;;16.40;83.89
15405;BME280;7801;48.124;11.590;2023-10-19T11:21:13;93656.25;;;16.42;84.56
15405;BME280;7801;48.124;11.590;2023-10-19T11:23:50;93644.13;;;16.56;85.02
15405;BME280;7801;48.124;11.590;2023-10-19T11:26:24;93644.91;;;16.60;85.09
15405;BME280;7801;48.124;11.590;2023-10-19T11:29:03;93655.19;;;16.54;86.00
15405;BME280;7801;48.124;11.590;2023-10-19T11:31:37;93646.41;;;16.54;86.07
15405;BME280;7801;48.124;11.590;2023-10-19T11:34:04;93639.50;;;16.53;86.45
15405;BME280;7801;48.124;11.590;2023-10-19T11:36:31;93631.06;;;16.50;86.38
15405;BME280;7801;48.124;11.590;2023-10-19T11:38:59;93614.94;;;16.40;87.28
15405;BME280;7801;48.124;11.590;2023-10-19T11:41:25;93613.41;;;16.42;87.31
15405;BME280;7801;48.124;11.590;2023-10-19T11:43:53;93591.25;;;16.45;86.80
15405;BME280;7801;48.124;11.590;2023-10-19T11:46:19;93584.47;;;16.59;86.79
15405;BME280;7801;48.124;11.590;2023-10-19T11:48:52;93587.91;;;16.63;86.75
15405;BME280;7801;48.124;11.590;2023-10-19T11:51:20;93578.72;;;16.57;87.39
15405;BME280;7801;48.124;11.590;2023-10-19T11:53:46;93582.53;;;16.56;88.69
15405;BME280;7801;48.124;11.590;2023-10-19T11:56:13;93587.50;;;16.54;89.17
15405;BME280;7801;48.124;11.590;2023-10-19T11:58:43;93582.19;;;16.57;89.50
15405;BME280;7801;48.124;11.590;2023-10-19T12:01:13;93568.84;;;16.64;88.69
15405;BME280;7801;48.124;11.590;2023-10-19T12:03:40;93562.75;;;16.67;88.96
15405;BME280;7801;48.124;11.590;2023-10-19T12:06:10;93564.59;;;16.60;89.63
15405;BME280;7801;48.124;11.590;2023-10-19T12:08:43;93556.97;;;16.65;90.00
15405;BME280;7801;48.124;11.590;2023-10-19T12:11:08;93549.34;;;16.67;90.07
15405;BME280;7801;48.124;11.590;2023-10-19T12:13:44;93557.84;;;16.80;88.17
15405;BME280;7801;48.124;11.590;2023-10-19T12:16:14;93557.94;;;17.01;85.74
15405;BME280;7801;48.124;11.590;2023-10-19T12:19:06;93569.50;;;17.27;84.46
15405;BME280;7801;48.124;11.590;2023-10-19T12:21:39;93566.53;;;17.60;83.87
15405;BME280;7801;48.124;11.590;2023-10-19T12:24:09;93573.47;;;17.72;83.77
15405;BME280;7801;48.124;11.590;2023-10-19T12:27:02;93566.97;;;17.83;83.77
15405;BME280;7801;48.124;11.590;2023-10-19T12:29:31;93560.06;;;17.75;83.45
15405;BME280;7801;48.124;11.590;2023-10-19T12:31:59;93564.56;;;17.50;83.62
15405;BME280;7801;48.124;11.590;2023-10-19T12:34:48;93555.75;;;17.39;84.19
15405;BME280;7801;48.124;11.590;2023-10-19T12:37:42;93545.72;;;17.14;86.33
15405;BME280;7801;48.124;11.590;2023-10-19T12:40:18;93543.81;;;17.15;86.18
15405;BME280;7801;48.124;11.590;2023-10-19T12:42:55;93524.31;;;17.25;85.83
15405;BME280;7801;48.124;11.590;2023-10-19T12:45:35;93524.69;;;17.16;86.23
15405;BME280;7801;48.124;11.590;2023-10-19T12:48:03;93532.00;;;17.34;85.42
15405;BME280;7801;48.124;11.590;2023-10-19T12:50:50;93526.59;;;17.27;85.57
15405;BME280;7801;48.124;11.590;2023-10-19T12:53:18;93526.56;;;17.12;85.99
15405;BME280;7801;48.124;11.590;2023-10-19T12:55:44;93531.19;;;17.15;85.83
15405;BME280;7801;48.124;11.590;2023-10-19T12:58:09;93528.09;;;17.13;85.37
15405;BME280;7801;48.124;11.590;2023-10-19T13:00:56;93522.00;;;17.16;84.58
15405;BME280;7801;48.124;11.590;2023-10-19T13:03:24;93515.88;;;17.16;84.84
15405;BME280;7801;48.124;11.590;2023-10-19T13:06:01;93517.41;;;17.17;83.34
15405;BME280;7801;48.124;11.590;2023-10-19T13:08:49;93513.59;;;17.29;82.70
15405;BME280;7801;48.124;11.590;2023-10-19T13:11:24;93510.91;;;17.18;83.66
15405;BME280;7801;48.124;11.590;2023-10-19T13:14:10;93515.09;;;17.12;83.97
15405;BME280;7801;48.124;11.590;2023-10-19T13:16:38;93523.13;;;17.12;83.52
15405;BME280;7801;48.124;11.590;2023-10-19T13:19:26;93513.19;;;17.12;83.13
15405;BME280;7801;48.124;11.590;2023-10-19T13:21:52;93507.03;;;17.08;85.08
15405;BME280;7801;48.124;11.590;2023-10-19T13:24:20;93512.00;;;17.03;84.46
15405;BME280;7801;48.124;11.590;2023-10-19T13:26:49;93518.16;;;17.10;82.85
15405;BME280;7801;48.124;11.590;2023-10-19T13:29:20;93514.75;;;17.28;81.77
15405;BME280;7801;48.124;11.590;2023-10-19T13:31:48;93515.16;;;17.37;80.09
15405;BME280;7801;48.124;11.590;2023-10-19T13:34:23;93515.13;;;17.30;80.37
15405;BME280;7801;48.124;11.590;2023-10-19T13:36:50;93509.00;;;17.18;81.45
15405;BME280;7801;48.124;11.590;2023-10-19T13:39:19;93508.63;;;17.24;81.25
15405;BME280;7801;48.124;11.590;2023-10-19T13:41:45;93507.47;;;17.17;81.43
15405;BME280;7801;48.124;11.590;2023-10-19T13:44:11;93516.66;;;17.24;81.72
15405;BME280;7801;48.124;11.590;2023-10-19T13:46:41;93515.53;;;17.25;81.71
15405;BME280;7801;48.124;11.590;2023-10-19T13:49:07;93510.91;;;17.22;81.36
15405;BME280;7801;48.124;11.590;2023-10-19T13:51:47;93516.66;;;17.27;80.65
15405;BME280;7801;48.124;11.590;2023-10-19T13:54:25;93517.44;;;17.24;80.90
15405;BME280;7801;48.124;11.590;2023-10-19T13:57:03;93521.25;;;17.20;81.07
15405;BME280;7801;48.124;11.590;2023-10-19T13:59:29;93522.00;;;17.16;81.36
15405;BME280;7801;48.124;11.590;2023-10-19T14:01:56;93520.09;;;17.17;81.31
15405;BME280;7801;48.124;11.590;2023-10-19T14:04:28;93529.63;;;17.07;82.16
15405;BME280;7801;48.124;11.590;2023-10-19T14:06:55;93538.03;;;16.99;82.95
15405;BME280;7801;48.124;11.590;2023-10-19T14:09:23;93539.94;;;17.05;82.16
15405;BME280;7801;48.124;11.590;2023-10-19T14:12:02;93539.09;;;16.83;85.84
15405;BME280;7801;48.124;11.590;2023-10-19T14:14:50;93534.19;;;16.96;82.75
15405;BME280;7801;48.124;11.590;2023-10-19T14:17:17;93538.00;;;16.92;83.20
15405;BME280;7801;48.124;11.590;2023-10-19T14:19:43;93534.91;;;16.90;83.70
15405;BME280;7801;48.124;11.590;2023-10-19T14:22:14;93521.56;;;16.97;84.36